LEBLEDDB

Guest
Details From LEBL - Barcelona - El Prat
To EDDB - Berlin Schoenefeld
Flight Number -
Tags decoded
Created
Modified
Stats Distance 861 nm / 1,594 km
Max Altitude 0 ft / 0 m
Waypoints 13
Social Downloads 1
Likes 0
Share VATSIM

Download

Looking for another format? Having issues loading an existing format? Contact us
Advertisement - Login to hide

Notes

Requested: LEBL DALIN UN870 SOSUR UM976 SOFFY UQ208 SONOM UQ222 TEDGO UN851 LOHRE UN746 ROBEL T200 RUDAK EDDB Unmatched points: UQ208 UQ222 UN851 T200

Route

LEBL DALIN UN870 SOSUR UM976 SOFFY SONOM TEDGO LOHRE UN746 ROBEL RUDAK EDDB

ID Type Via Altitude Latitude Longitude Leg Dist Tot Dist Heading (true) Name
O LEBL APT - 0 ft / 0 m 41.29511˚ 2.08803˚ - 0 nm - Barcelona - El Prat
DALIN FIX - 0 ft / 0 m 41.73378˚ 3.35789˚ 62 nm 62 nm 65° / 66° -
PIVUS FIX UN870 (AWY-HI) 0 ft / 0 m 41.92390˚ 3.93375˚ 28 nm 91 nm 66° / 66° -
DIBER FIX UN870 (AWY-HI) 0 ft / 0 m 42.07972˚ 4.41500˚ 23 nm 114 nm 66° / 67° -
SOSUR FIX UN870 (AWY-HI) 0 ft / 0 m 42.56028˚ 4.99750˚ 38 nm 153 nm 42° / 42° -
SOFFY FIX UM976 (AWY-HI) 0 ft / 0 m 43.02056˚ 5.18056˚ 28 nm 182 nm 16° / 16° -
SONOM FIX - 0 ft / 0 m 47.78417˚ 8.89611˚ 326 nm 508 nm 27° / 30° -
TEDGO FIX - 0 ft / 0 m 48.61841˚ 9.25921˚ 52 nm 560 nm 16° / 16° -
LOHRE FIX - 0 ft / 0 m 50.06694˚ 9.48639˚ 87 nm 647 nm 6° / 6° -
TIKNI FIX UN746 (AWY-HI) 0 ft / 0 m 50.40972˚ 9.87333˚ 25 nm 673 nm 36° / 36° -
ROBEL FIX UN746 (AWY-HI) 0 ft / 0 m 50.89753˚ 10.43367˚ 36 nm 709 nm 36° / 36° -
RUDAK FIX - 0 ft / 0 m 51.72722˚ 12.94639˚ 106 nm 816 nm 61° / 63° -
O EDDB APT - 0 ft / 0 m 52.37854˚ 13.52063˚ 44 nm 860 nm 28° / 29° Berlin Schoenefeld

Altitude Profile

Advertisement - Login to hide

Weather


0- 5 10 15 20 25 30 35+ Temperature / ° C

Clouds and Precipitation
Forecast for 2018-05-22 00:00 UTC. Updated 5 hours ago

Ground ~20,000 ft ~40,000 ft Winds

LEBL

Details ICAO LEBL (BCN)
Name Barcelona - El Prat
Region Spain
Timezone Europe/Madrid (UTC+2.0)
Stats Elevation 14 ft / 4 m (AMSL)
Location 41.295108° 2.088030°
Runways 3
Magnetic Variation 0.869° E

METAR

LEBL 220430Z 32005KT 9999 FEW030 17/13 Q1012 NOSIG

Decode

TAF

TAF LEBL 212300Z 2200/2224 VRB04KT 9999 FEW030 TX23/2212Z TN16/2206Z BECMG 2208/2210 20008KT PROB30 TEMPO 2213/2219 4000 SHRA BKN025 FEW030CB BECMG 2222/2224 27004KT

Decode

Departure Runways

ID Width Length Bearing (true) Bearing (mag) Surface Threshold Offset Overrun Length
02 148 ft / 45 m 8,343 ft / 2,543 m 18.93° 18.06° Asphalt 0 ft / 0 m 348 ft / 106 m
07L 197 ft / 60 m 10,983 ft / 3,348 m 65.49° 64.62° Asphalt 1,411 ft / 430 m 1,161 ft / 354 m
07R 197 ft / 60 m 8,718 ft / 2,657 m 65.49° 64.62° Asphalt 0 ft / 0 m 207 ft / 63 m
20 148 ft / 45 m 8,343 ft / 2,543 m 198.93° 198.06° Asphalt 0 ft / 0 m 200 ft / 61 m
25L 197 ft / 60 m 8,718 ft / 2,657 m 245.51° 244.64° Asphalt 0 ft / 0 m 203 ft / 62 m
25R 197 ft / 60 m 10,983 ft / 3,348 m 245.51° 244.64° Asphalt 0 ft / 0 m 522 ft / 159 m

EDDB

Details ICAO EDDB (BER)
Name Berlin Schoenefeld
Region Germany - Civil
Timezone Europe/Berlin (UTC+2.0)
Stats Elevation 157 ft / 48 m (AMSL)
Location 52.378541° 13.520629°
Runways 2
Magnetic Variation 3.865° E

METAR

EDDB 220420Z 07005KT CAVOK 12/07 Q1016 NOSIG

Decode

TAF

TAF EDDB 212300Z 2200/2224 07007KT CAVOK= TAF EDDC 212300Z 2200/2224 09008KT CAVOK

Decode

Destination Runways

ID Width Length Bearing (true) Bearing (mag) Surface Threshold Offset Overrun Length
07 148 ft / 45 m 9,817 ft / 2,992 m 68.75° 64.88° Asphalt 0 ft / 0 m 984 ft / 300 m
07L 148 ft / 45 m 8,867 ft / 2,703 m 68.77° 64.90° Concrete 0 ft / 0 m 525 ft / 160 m
25 148 ft / 45 m 9,817 ft / 2,992 m 248.78° 244.91° Asphalt 0 ft / 0 m 984 ft / 300 m
25R 148 ft / 45 m 8,867 ft / 2,703 m 248.80° 244.93° Concrete 0 ft / 0 m 984 ft / 300 m

Approach Navaids

Runway Type Ident Frequency Range Bearing (true) Bearing (mag) Slope Elevation
07 Localiser ISSE 110.70 MHz 18 nm / 33 km 68.79° 64.92° - 157 ft / 48 m (AMSL)
07 Glidescope ISSE 110.70 MHz 10 nm / 19 km 68.77° 64.90° 3.00° 157 ft / 48 m (AMSL)
25 Localiser ISSW 109.90 MHz 18 nm / 33 km 248.75° 244.88° - 157 ft / 48 m (AMSL)
25 Glidescope ISSW 109.90 MHz 10 nm / 19 km 248.77° 244.90° 3.00° 157 ft / 48 m (AMSL)

Popular Alternatives